Time;durP1;ratioP1;P1;durP2;ratioP2;P2;SDS_P1;SDS_P2;PMS_P1;PMS_P2;Temp;Humidity;BMP_temperature;BMP_pressure;BME280_temperature;BME280_humidity;BME280_pressure;Samples;Min_cycle;Max_cycle;Signal;HPM_P1;HPM_P2
2022/04/04 00:01:53;;;;;;;5.20;2.58;;;;;;;4.61;58.10;99929.22;5090831;28;20056;-60
2022/04/04 00:04:20;;;;;;;4.78;2.58;;;;;;;4.61;57.92;99930.97;5092210;28;20052;-59
2022/04/04 00:06:46;;;;;;;4.30;2.67;;;;;;;4.62;58.25;99932.66;5092311;28;20086;-59
2022/04/04 00:09:13;;;;;;;3.70;2.70;;;;;;;4.62;58.08;99924.84;5091865;28;20098;-60
2022/04/04 00:11:40;;;;;;;3.90;2.47;;;;;;;4.61;57.88;99929.22;5092172;28;20048;-60
2022/04/04 00:14:06;;;;;;;5.20;2.85;;;;;;;4.61;58.25;99923.13;5091996;28;20059;-60
2022/04/04 00:16:34;;;;;;;4.15;2.97;;;;;;;4.60;58.24;99926.66;5091946;28;20051;-60
2022/04/04 00:19:01;;;;;;;4.25;2.80;;;;;;;4.59;57.92;99920.56;5092071;28;20044;-59
2022/04/04 00:21:28;;;;;;;3.50;2.90;;;;;;;4.56;58.15;99921.53;5091912;28;20040;-62
2022/04/04 00:23:54;;;;;;;5.05;3.13;;;;;;;4.55;58.00;99917.22;5091985;28;20044;-59
2022/04/04 00:26:21;;;;;;;5.55;3.03;;;;;;;4.52;58.36;99912.06;5090721;28;20051;-59
2022/04/04 00:28:49;;;;;;;3.65;3.00;;;;;;;4.51;58.31;99910.38;5091834;28;20462;-60
2022/04/04 00:31:17;;;;;;;5.95;2.70;;;;;;;4.49;58.26;99900.91;5090355;28;20052;-59
2022/04/04 00:33:44;;;;;;;4.45;2.80;;;;;;;4.47;58.41;99900.06;5090712;28;20059;-60
2022/04/04 00:36:11;;;;;;;4.03;3.10;;;;;;;4.46;58.48;99898.38;5091727;28;20059;-60
2022/04/04 00:38:37;;;;;;;4.30;3.03;;;;;;;4.44;58.69;99901.03;5091494;28;20052;-58
2022/04/04 00:41:08;;;;;;;4.93;2.83;;;;;;;4.40;59.24;99894.19;5091155;28;20458;-59
2022/04/04 00:43:35;;;;;;;3.97;2.67;;;;;;;4.39;58.38;99888.13;5090362;28;20450;-59
2022/04/04 00:46:02;;;;;;;4.95;2.78;;;;;;;4.38;58.81;99885.56;5091343;28;20062;-61
2022/04/04 00:48:29;;;;;;;3.63;3.00;;;;;;;4.36;58.52;99888.22;5091565;28;20048;-59
2022/04/04 00:50:56;;;;;;;4.95;2.70;;;;;;;4.35;58.73;99880.44;5091238;28;20116;-60
2022/04/04 00:53:25;;;;;;;4.88;2.90;;;;;;;4.31;58.68;99884.91;5091207;28;20442;-60
2022/04/04 00:55:52;;;;;;;3.95;2.90;;;;;;;4.31;58.88;99879.69;5089807;28;20101;-61
2022/04/04 00:58:19;;;;;;;6.72;2.97;;;;;;;4.28;58.86;99865.00;5091275;28;20105;-60
2022/04/04 01:00:48;;;;;;;6.05;2.95;;;;;;;4.26;59.09;99869.38;5090817;28;20060;-60
2022/04/04 01:03:15;;;;;;;4.15;2.83;;;;;;;4.24;59.30;99863.38;5089224;28;20139;-60
2022/04/04 01:05:46;;;;;;;4.47;2.85;;;;;;;4.22;59.15;99854.75;5089886;28;20446;-59
2022/04/04 01:08:16;;;;;;;3.58;2.70;;;;;;;4.20;59.69;99853.06;5091368;28;20059;-61
2022/04/04 01:10:43;;;;;;;4.93;2.85;;;;;;;4.19;59.12;99861.81;5089192;28;20519;-60
2022/04/04 01:13:11;;;;;;;6.95;3.33;;;;;;;4.16;59.39;99850.56;5089842;28;20044;-60
2022/04/04 01:15:38;;;;;;;4.88;2.95;;;;;;;4.13;59.16;99845.44;5090995;28;20082;-59
2022/04/04 01:18:06;;;;;;;4.32;3.05;;;;;;;4.11;59.53;99836.81;5090722;28;20500;-61
2022/04/04 01:20:34;;;;;;;7.40;3.40;;;;;;;4.10;59.63;99840.31;5089360;28;20056;-59
2022/04/04 01:23:02;;;;;;;4.05;3.28;;;;;;;4.08;59.34;99833.44;5089402;28;20051;-59
2022/04/04 01:25:30;;;;;;;6.47;3.25;;;;;;;4.07;59.63;99831.75;5089561;28;20055;-59
2022/04/04 01:27:57;;;;;;;4.95;3.17;;;;;;;4.06;59.71;99822.22;5090707;28;20060;-60
2022/04/04 01:30:25;;;;;;;4.65;3.05;;;;;;;4.03;59.71;99811.00;5089282;28;20048;-60
2022/04/04 01:32:52;;;;;;;3.45;3.15;;;;;;;4.04;59.61;99811.84;5089353;28;20051;-58
2022/04/04 01:35:20;;;;;;;5.88;3.83;;;;;;;4.01;60.22;99804.97;5090642;28;20048;-60
2022/04/04 01:37:47;;;;;;;4.53;3.30;;;;;;;4.01;59.57;99809.34;5090509;28;20048;-60
2022/04/04 01:40:15;;;;;;;7.47;3.78;;;;;;;4.01;60.13;99802.34;5089306;28;20044;-58
2022/04/04 01:42:47;;;;;;;8.20;4.38;;;;;;;3.96;61.47;99793.81;5090776;28;20116;-60
2022/04/04 01:45:14;;;;;;;5.55;4.40;;;;;;;3.99;60.34;99785.94;5089255;28;20048;-61
2022/04/04 01:47:41;;;;;;;6.30;4.68;;;;;;;3.99;60.22;99782.47;5090585;28;20048;-59
2022/04/04 01:50:08;;;;;;;7.25;4.88;;;;;;;3.99;60.24;99782.47;5090243;28;20054;-60
2022/04/04 01:52:35;;;;;;;9.65;5.03;;;;;;;3.99;60.40;99772.91;5090451;28;20052;-60
2022/04/04 01:55:02;;;;;;;8.43;5.05;;;;;;;3.98;60.58;99760.78;5090549;28;20113;-59
2022/04/04 01:57:28;;;;;;;7.38;4.80;;;;;;;3.98;60.36;99757.31;5090574;28;20055;-59
2022/04/04 01:59:55;;;;;;;8.15;5.68;;;;;;;3.98;60.63;99750.38;5089054;28;20048;-59
2022/04/04 02:02:21;;;;;;;7.88;5.43;;;;;;;3.99;60.43;99749.47;5090518;28;20405;-62
2022/04/04 02:04:48;;;;;;;6.97;5.55;;;;;;;3.99;60.59;99740.78;5090291;28;20052;-59
2022/04/04 02:07:15;;;;;;;12.50;5.63;;;;;;;3.99;61.00;99741.66;5090500;28;20052;-59
2022/04/04 02:09:41;;;;;;;7.65;5.25;;;;;;;4.01;60.73;99723.38;5089916;28;20044;-59
2022/04/04 02:12:10;;;;;;;5.82;4.70;;;;;;;4.02;60.95;99732.91;5090339;28;20044;-61
2022/04/04 02:14:36;;;;;;;9.85;5.45;;;;;;;4.02;60.80;99727.69;5089642;28;20377;-60
2022/04/04 02:17:04;;;;;;;9.23;5.70;;;;;;;4.03;60.96;99727.66;5094250;28;20508;-59
2022/04/04 02:19:31;;;;;;;6.88;5.45;;;;;;;4.04;60.78;99720.69;5092869;28;20048;-60
2022/04/04 02:21:58;;;;;;;9.23;5.75;;;;;;;4.03;61.21;99714.63;5092769;28;20047;-59
2022/04/04 02:24:25;;;;;;;9.43;5.35;;;;;;;4.04;60.95;99721.53;5094109;28;20485;-60
2022/04/04 02:26:51;;;;;;;10.75;5.80;;;;;;;4.05;61.22;99711.97;5092986;28;20484;-59
2022/04/04 02:29:18;;;;;;;8.43;5.45;;;;;;;4.03;61.35;99712.00;5093943;28;20133;-60
2022/04/04 02:31:44;;;;;;;6.63;4.95;;;;;;;4.04;60.97;99705.06;5094106;28;20136;-58
2022/04/04 02:34:11;;;;;;;10.13;5.65;;;;;;;4.04;61.13;99705.91;5094228;28;20052;-59
2022/04/04 02:36:38;;;;;;;8.65;5.53;;;;;;;4.06;61.28;99697.19;5094213;28;20052;-60
2022/04/04 02:39:04;;;;;;;9.02;5.85;;;;;;;4.04;61.63;99694.66;5093776;28;20052;-60
2022/04/04 02:41:31;;;;;;;7.10;5.18;;;;;;;4.06;61.44;99686.75;5094103;28;20396;-58
2022/04/04 02:43:58;;;;;;;8.05;5.55;;;;;;;4.06;61.48;99686.75;5093998;28;20052;-60
2022/04/04 02:46:24;;;;;;;7.72;4.93;;;;;;;4.07;60.90;99680.66;5093745;28;20048;-61
2022/04/04 02:48:51;;;;;;;9.93;5.47;;;;;;;4.07;61.13;99672.84;5093968;28;20052;-59
2022/04/04 02:51:17;;;;;;;7.80;4.82;;;;;;;4.07;60.96;99667.66;5093582;28;20508;-58
2022/04/04 02:53:44;;;;;;;6.75;4.85;;;;;;;4.08;61.30;99667.59;5093782;28;20511;-59
2022/04/04 02:56:29;;;;;;;9.25;6.35;;;;;;;4.08;61.42;99643.28;5093592;28;20063;-60
2022/04/04 02:59:05;;;;;;;6.75;4.63;;;;;;;4.06;62.18;99637.25;5092203;28;20590;-59
2022/04/04 03:01:32;;;;;;;8.65;5.03;;;;;;;4.08;61.43;99638.09;5093626;28;20052;-59
2022/04/04 03:03:58;;;;;;;7.85;5.55;;;;;;;4.08;61.53;99622.47;5093482;28;20047;-59
2022/04/04 03:06:26;;;;;;;6.40;4.78;;;;;;;4.09;61.26;99614.59;5093384;28;20056;-59
2022/04/04 03:08:52;;;;;;;8.50;5.65;;;;;;;4.09;61.23;99614.59;5092073;28;20048;-58
2022/04/04 03:11:19;;;;;;;8.52;5.80;;;;;;;4.10;61.53;99610.22;5091846;28;20047;-59
2022/04/04 03:13:46;;;;;;;6.40;4.85;;;;;;;4.09;61.33;99603.31;5093199;28;20562;-60
2022/04/04 03:16:13;;;;;;;8.73;5.13;;;;;;;4.11;61.31;99609.34;5093181;28;20779;-60
2022/04/04 03:18:40;;;;;;;7.28;5.25;;;;;;;4.10;61.14;99598.06;5092943;28;20055;-59
2022/04/04 03:21:07;;;;;;;7.18;4.72;;;;;;;4.11;61.20;99598.91;5092755;28;20113;-59
2022/04/04 03:23:39;;;;;;;8.27;5.15;;;;;;;4.11;61.44;99591.94;5093205;28;20412;-59
2022/04/04 03:26:08;;;;;;;5.95;4.82;;;;;;;4.13;61.05;99594.50;5092344;28;20060;-59
2022/04/04 03:28:36;;;;;;;6.28;5.22;;;;;;;4.12;61.57;99593.63;5091808;28;20055;-60
2022/04/04 03:31:05;;;;;;;7.68;5.45;;;;;;;4.13;61.36;99581.47;5092620;28;20101;-59
2022/04/04 03:33:32;;;;;;;7.25;5.45;;;;;;;4.13;61.01;99576.25;5093493;28;20044;-59
2022/04/04 03:35:59;;;;;;;7.88;5.20;;;;;;;4.15;60.95;99566.66;5091527;28;20052;-59
2022/04/04 03:38:27;;;;;;;8.55;5.30;;;;;;;4.16;61.49;99565.75;5092576;28;20055;-60
2022/04/04 03:40:54;;;;;;;6.80;5.32;;;;;;;4.17;60.96;99559.63;5092692;28;20047;-60
2022/04/04 03:43:22;;;;;;;7.40;5.47;;;;;;;4.16;60.94;99561.38;5091390;28;20051;-58
2022/04/04 03:45:50;;;;;;;9.75;4.65;;;;;;;4.18;60.89;99548.28;5091472;28;20048;-59
2022/04/04 03:48:17;;;;;;;7.15;5.25;;;;;;;4.18;61.03;99545.69;5092412;28;20050;-60
2022/04/04 03:50:45;;;;;;;9.60;5.30;;;;;;;4.20;60.93;99533.47;5092144;28;20060;-60
2022/04/04 03:53:12;;;;;;;7.40;5.72;;;;;;;4.19;60.71;99534.38;5092354;28;20052;-60
2022/04/04 03:55:40;;;;;;;8.73;6.13;;;;;;;4.20;61.36;99519.59;5091217;28;20044;-59
2022/04/04 03:58:08;;;;;;;8.43;5.93;;;;;;;4.20;60.62;99517.84;5090990;28;20381;-59
2022/04/04 04:00:37;;;;;;;10.18;6.28;;;;;;;4.20;60.93;99516.97;5092179;28;20476;-59
2022/04/04 04:03:05;;;;;;;10.05;7.10;;;;;;;4.16;60.97;99508.44;5090807;28;20088;-60
2022/04/04 04:05:32;;;;;;;7.60;5.70;;;;;;;4.18;60.54;99506.63;5091948;28;20047;-60
2022/04/04 04:07:59;;;;;;;9.88;6.07;;;;;;;4.17;60.75;99499.72;5091998;28;20076;-60
2022/04/04 04:10:25;;;;;;;8.50;5.90;;;;;;;4.18;60.30;99496.19;5092274;28;20081;-59
2022/04/04 04:12:52;;;;;;;9.57;6.53;;;;;;;4.19;60.28;99499.66;5092200;28;20067;-59
2022/04/04 04:15:23;;;;;;;8.75;6.35;;;;;;;4.17;60.54;99484.06;5092082;28;20052;-60
2022/04/04 04:17:52;;;;;;;11.10;6.50;;;;;;;4.20;60.72;99480.50;5090750;28;20117;-60
2022/04/04 04:20:20;;;;;;;9.65;6.00;;;;;;;4.19;60.27;99484.03;5091790;28;20073;-61
2022/04/04 04:22:52;;;;;;;8.88;6.88;;;;;;;4.19;60.39;99473.59;5090725;28;20135;-60
2022/04/04 04:25:20;;;;;;;11.05;6.18;;;;;;;4.19;60.25;99471.88;5090634;28;20047;-61
2022/04/04 04:27:47;;;;;;;9.60;6.80;;;;;;;4.20;60.01;99472.69;5090531;28;20048;-59
2022/04/04 04:30:15;;;;;;;10.75;7.15;;;;;;;4.18;60.19;99470.13;5091624;28;20047;-59
2022/04/04 04:32:44;;;;;;;9.18;6.97;;;;;;;4.17;60.38;99461.50;5090448;28;20052;-59
2022/04/04 04:35:11;;;;;;;10.73;7.03;;;;;;;4.20;60.13;99465.75;5090410;28;20060;-61
2022/04/04 04:37:38;;;;;;;8.80;6.85;;;;;;;4.17;60.17;99461.50;5090785;28;20047;-60
2022/04/04 04:40:05;;;;;;;10.85;7.65;;;;;;;4.17;59.76;99443.25;5091335;28;20056;-59
2022/04/04 04:42:33;;;;;;;11.38;7.43;;;;;;;4.19;60.07;99448.41;5091962;28;20090;-60
2022/04/04 04:45:04;;;;;;;13.77;6.95;;;;;;;4.20;59.61;99439.69;5090100;28;20052;-59
2022/04/04 04:47:32;;;;;;;13.23;7.95;;;;;;;4.22;59.74;99439.63;5091834;28;20105;-60
2022/04/04 04:50:00;;;;;;;13.20;7.60;;;;;;;4.22;59.79;99453.50;5091234;28;20113;-60
2022/04/04 04:52:27;;;;;;;10.10;7.63;;;;;;;4.23;59.35;99429.13;5090155;28;20051;-60
2022/04/04 04:54:54;;;;;;;13.73;7.70;;;;;;;4.25;59.72;99432.56;5090246;28;20055;-59
2022/04/04 04:57:21;;;;;;;11.40;7.90;;;;;;;4.25;59.27;99418.66;5091409;28;20051;-59
2022/04/04 04:59:49;;;;;;;11.07;7.85;;;;;;;4.27;59.54;99417.69;5089699;28;20386;-60
2022/04/04 05:02:16;;;;;;;11.68;8.30;;;;;;;4.28;59.12;99409.00;5089983;28;20044;-59
2022/04/04 05:04:43;;;;;;;9.32;7.03;;;;;;;4.32;59.40;99398.44;5090227;28;20055;-59
2022/04/04 05:07:09;;;;;;;9.85;7.45;;;;;;;4.30;59.21;99386.31;5091241;28;20471;-61
2022/04/04 05:09:37;;;;;;;9.40;7.47;;;;;;;4.33;59.04;99385.34;5091061;28;20048;-59
2022/04/04 05:12:04;;;;;;;9.60;7.28;;;;;;;4.36;59.13;99387.00;5091111;28;20108;-59
2022/04/04 05:14:30;;;;;;;9.05;6.97;;;;;;;4.39;58.83;99381.69;5090842;28;20060;-59
2022/04/04 05:16:57;;;;;;;9.05;6.72;;;;;;;4.41;58.68;99369.47;5091102;28;20048;-59
2022/04/04 05:19:23;;;;;;;9.85;6.75;;;;;;;4.43;58.53;99362.41;5089319;28;20519;-59
2022/04/04 05:21:51;;;;;;;11.15;7.20;;;;;;;4.45;58.40;99367.56;5090928;28;20523;-60
2022/04/04 05:24:18;;;;;;;13.02;7.13;;;;;;;4.49;58.54;99351.75;5089491;28;20055;-61
2022/04/04 05:26:46;;;;;;;9.30;6.70;;;;;;;4.49;58.25;99341.31;5090506;28;20060;-59
2022/04/04 05:29:15;;;;;;;14.48;7.18;;;;;;;4.54;58.15;99355.06;5090634;28;20063;-59
2022/04/04 05:31:42;;;;;;;9.55;6.70;;;;;;;4.56;57.92;99362.78;5089548;28;20052;-59
2022/04/04 05:34:08;;;;;;;9.68;6.70;;;;;;;4.59;57.75;99338.38;5090619;28;20056;-60
2022/04/04 05:36:35;;;;;;;13.23;6.90;;;;;;;4.62;57.57;99327.81;5089309;28;20079;-59
2022/04/04 05:39:03;;;;;;;8.68;6.45;;;;;;;4.66;57.65;99316.34;5090764;28;20048;-59
2022/04/04 05:41:30;;;;;;;8.65;6.32;;;;;;;4.68;57.50;99320.59;5089805;28;20625;-59
2022/04/04 05:43:57;;;;;;;9.15;6.57;;;;;;;4.72;57.39;99313.53;5090815;28;20048;-59
2022/04/04 05:46:24;;;;;;;11.43;6.18;;;;;;;4.74;57.13;99309.06;5090626;28;20048;-58
2022/04/04 05:48:52;;;;;;;9.60;5.45;;;;;;;4.79;57.16;99298.47;5090181;28;20515;-60
2022/04/04 05:51:19;;;;;;;10.55;5.82;;;;;;;4.80;56.88;99303.63;5089018;28;20040;-62
2022/04/04 05:53:45;;;;;;;11.10;5.32;;;;;;;4.83;56.70;99295.66;5090431;28;20056;-59
2022/04/04 05:56:12;;;;;;;7.70;6.40;;;;;;;4.88;56.54;99302.44;5090551;28;20059;-59
2022/04/04 05:58:40;;;;;;;9.82;5.78;;;;;;;4.93;56.54;99287.47;5090479;28;20043;-64
2022/04/04 06:01:08;;;;;;;8.32;5.68;;;;;;;4.97;56.66;99286.41;5089885;28;20498;-60
2022/04/04 06:03:35;;;;;;;9.98;5.35;;;;;;;5.01;56.57;99279.34;5088910;28;20079;-60
2022/04/04 06:06:02;;;;;;;7.18;5.32;;;;;;;5.05;56.26;99281.72;5090550;28;20087;-59
2022/04/04 06:08:30;;;;;;;8.82;5.45;;;;;;;5.07;56.44;99282.53;5090109;28;20051;-58
2022/04/04 06:10:57;;;;;;;11.25;5.28;;;;;;;5.11;55.95;99271.94;5088620;28;20543;-59
2022/04/04 06:13:24;;;;;;;10.68;6.22;;;;;;;5.15;56.04;99265.69;5089806;28;20511;-59
2022/04/04 06:15:50;;;;;;;7.60;5.53;;;;;;;5.18;55.88;99260.34;5090290;28;20059;-59
2022/04/04 06:18:17;;;;;;;6.93;5.25;;;;;;;5.21;55.29;99274.09;5090155;28;20098;-61
2022/04/04 06:20:44;;;;;;;10.25;5.13;;;;;;;5.26;55.77;99247.81;5090031;28;20059;-60
2022/04/04 06:23:13;;;;;;;10.57;5.95;;;;;;;5.30;55.40;99233.72;5090251;28;20051;-63
2022/04/04 06:25:41;;;;;;;11.60;6.03;;;;;;;5.33;55.10;99264.06;5090364;28;20044;-60
2022/04/04 06:28:09;;;;;;;7.88;5.05;;;;;;;5.38;55.06;99251.66;5090045;28;20048;-59
2022/04/04 06:30:35;;;;;;;8.18;4.97;;;;;;;5.42;55.57;99241.94;5090138;28;20144;-61
2022/04/04 06:33:06;;;;;;;8.18;5.65;;;;;;;5.44;54.50;99240.97;5090113;28;20492;-59
2022/04/04 06:35:33;;;;;;;10.75;5.88;;;;;;;5.51;55.00;99246.75;5088750;28;20044;-59
2022/04/04 06:38:02;;;;;;;9.00;5.95;;;;;;;5.54;54.72;99240.56;5090318;28;20048;-60
2022/04/04 06:40:30;;;;;;;7.72;5.53;;;;;;;5.59;54.64;99238.56;5089790;28;20059;-59
2022/04/04 06:42:58;;;;;;;10.52;5.63;;;;;;;5.63;54.64;99228.81;5090071;28;20088;-59
2022/04/04 06:45:25;;;;;;;12.57;5.80;;;;;;;5.65;54.01;99216.56;5088885;28;20237;-60
2022/04/04 06:47:52;;;;;;;7.88;5.68;;;;;;;5.71;54.60;99219.75;5090011;28;20051;-59
2022/04/04 06:50:19;;;;;;;14.20;6.47;;;;;;;5.72;54.09;99208.38;5089493;28;20043;-59
2022/04/04 06:52:46;;;;;;;8.80;5.50;;;;;;;5.79;54.32;99219.38;5090155;28;20056;-60
2022/04/04 06:55:32;;;;;;;8.18;5.15;;;;;;;5.84;54.28;99193.06;5090311;28;20106;-60
2022/04/04 06:58:00;;;;;;;11.15;5.82;;;;;;;5.84;54.01;99186.06;5088569;28;20051;-60
2022/04/04 07:00:27;;;;;;;8.23;5.57;;;;;;;5.87;53.96;99188.53;5088602;28;20048;-60
2022/04/04 07:02:55;;;;;;;11.50;5.40;;;;;;;5.91;54.04;99181.41;5093838;28;20044;-60
2022/04/04 07:05:22;;;;;;;7.72;5.30;;;;;;;5.95;54.28;99182.13;5093517;28;20143;-59
2022/04/04 07:07:49;;;;;;;8.07;5.30;;;;;;;5.99;54.27;99170.59;5093285;28;20056;-59
2022/04/04 07:10:16;;;;;;;10.20;5.13;;;;;;;6.01;53.86;99176.59;5093078;28;20052;-58
2022/04/04 07:12:43;;;;;;;7.95;5.50;;;;;;;6.04;53.96;99168.66;5092641;28;20052;-59
2022/04/04 07:15:11;;;;;;;8.30;5.60;;;;;;;6.06;53.93;99172.00;5092909;28;20044;-59
2022/04/04 07:17:40;;;;;;;8.68;5.70;;;;;;;6.07;54.14;99173.72;5093364;28;20453;-59
2022/04/04 07:20:07;;;;;;;6.32;5.07;;;;;;;6.09;54.48;99153.59;5091747;28;20488;-59
2022/04/04 07:22:38;;;;;;;7.95;5.13;;;;;;;6.09;54.67;99153.59;5092000;28;20048;-59
2022/04/04 07:25:07;;;;;;;6.28;4.65;;;;;;;6.11;55.13;99159.59;5093286;28;20130;-65
2022/04/04 07:27:35;;;;;;;8.15;5.57;;;;;;;6.10;55.04;99147.44;5091615;28;20044;-59
2022/04/04 07:30:03;;;;;;;8.68;5.43;;;;;;;6.07;55.22;99151.97;5093041;28;20044;-58
2022/04/04 07:32:30;;;;;;;7.75;5.40;;;;;;;6.04;55.46;99137.28;5092979;28;20059;-60
2022/04/04 07:34:56;;;;;;;7.22;5.45;;;;;;;6.02;55.54;99135.66;5093158;28;20048;-59
2022/04/04 07:37:23;;;;;;;8.35;5.45;;;;;;;6.03;56.05;99117.31;5092951;28;20056;-59
2022/04/04 07:39:50;;;;;;;10.32;5.65;;;;;;;6.04;55.81;99112.91;5091422;28;20044;-60
2022/04/04 07:42:16;;;;;;;8.93;6.10;;;;;;;6.03;55.90;99095.53;5092768;28;20492;-60
2022/04/04 07:44:43;;;;;;;7.28;5.38;;;;;;;6.07;56.02;99118.00;5092805;28;20047;-60
2022/04/04 07:47:10;;;;;;;7.82;5.43;;;;;;;6.08;56.14;99081.34;5092584;28;20446;-60
2022/04/04 07:49:36;;;;;;;9.75;5.47;;;;;;;6.13;56.32;99097.66;5092525;28;20504;-59
2022/04/04 07:52:03;;;;;;;9.43;5.97;;;;;;;6.14;56.32;99088.06;5092610;28;20044;-59
2022/04/04 07:54:30;;;;;;;8.80;6.35;;;;;;;6.16;56.13;99085.38;5092577;28;20051;-60
2022/04/04 07:56:56;;;;;;;8.73;6.03;;;;;;;6.20;56.43;99092.13;5092728;28;20386;-59
2022/04/04 07:59:23;;;;;;;8.20;5.57;;;;;;;6.20;56.27;99059.00;5092324;28;20040;-57
2022/04/04 08:01:50;;;;;;;8.90;5.90;;;;;;;6.22;56.51;99070.22;5091303;28;20382;-60
2022/04/04 08:04:17;;;;;;;7.82;5.78;;;;;;;6.26;56.74;99070.91;5092644;28;20056;-60
2022/04/04 08:06:44;;;;;;;10.05;6.15;;;;;;;6.26;56.70;99055.22;5091193;28;20048;-60
2022/04/04 08:09:11;;;;;;;9.02;6.30;;;;;;;6.28;56.69;99063.00;5090669;28;20052;-60
2022/04/04 08:11:37;;;;;;;12.63;6.50;;;;;;;6.32;56.86;99033.16;5092224;28;20457;-60
2022/04/04 08:14:08;;;;;;;9.70;6.45;;;;;;;6.33;57.33;99022.63;5092202;28;20071;-59
2022/04/04 08:16:35;;;;;;;9.00;6.57;;;;;;;6.33;57.13;99046.16;5092173;28;20052;-61
2022/04/04 08:19:02;;;;;;;8.32;6.95;;;;;;;6.32;57.54;99039.22;5090807;28;20055;-59
2022/04/04 08:21:30;;;;;;;11.07;7.75;;;;;;;6.30;57.74;99021.94;5091490;28;20044;-59
2022/04/04 08:23:57;;;;;;;8.75;6.88;;;;;;;6.27;58.46;99027.34;5090414;28;20048;-60
2022/04/04 08:26:23;;;;;;;10.30;7.63;;;;;;;6.23;58.62;99013.56;5092175;28;20105;-58
2022/04/04 08:28:50;;;;;;;11.25;7.50;;;;;;;6.20;58.89;99008.50;5092057;28;20056;-59
2022/04/04 08:31:16;;;;;;;15.02;7.18;;;;;;;6.18;58.77;99005.97;5091552;28;20397;-61
2022/04/04 08:33:43;;;;;;;15.40;8.70;;;;;;;6.08;60.02;98982.06;5091917;28;20048;-58
2022/04/04 08:36:10;;;;;;;10.10;7.47;;;;;;;6.06;59.57;98994.34;5091704;28;20109;-59
2022/04/04 08:38:38;;;;;;;10.95;8.75;;;;;;;5.98;59.91;99014.78;5091098;28;20619;-60
2022/04/04 08:41:09;;;;;;;18.10;8.20;;;;;;;5.94;60.58;98968.84;5091426;28;20558;-60
2022/04/04 08:43:38;;;;;;;13.15;8.38;;;;;;;5.86;61.50;98977.91;5091632;28;20059;-58
2022/04/04 08:46:06;;;;;;;10.63;7.80;;;;;;;5.81;61.59;98979.91;5090256;28;20511;-60
2022/04/04 08:48:39;;;;;;;13.35;8.00;;;;;;;5.73;63.40;98971.59;5091470;28;20142;-60
2022/04/04 08:51:10;;;;;;;12.50;8.45;;;;;;;5.70;62.77;98964.75;5090045;28;20059;-60
2022/04/04 08:53:38;;;;;;;14.55;9.07;;;;;;;5.63;63.40;98946.84;5090133;28;20052;-61
2022/04/04 08:56:08;;;;;;;15.65;9.63;;;;;;;5.59;63.49;98946.16;5089664;28;20050;-61
2022/04/04 08:58:34;;;;;;;15.77;9.68;;;;;;;5.55;63.73;98953.31;5091404;28;20056;-59
2022/04/04 09:01:01;;;;;;;13.23;8.85;;;;;;;5.52;63.63;98939.53;5090764;28;20101;-60
2022/04/04 09:03:31;;;;;;;16.00;9.77;;;;;;;5.48;64.40;98931.03;5091398;28;20083;-60
2022/04/04 09:06:00;;;;;;;15.10;9.52;;;;;;;5.45;64.87;98937.25;5091106;28;20059;-59
2022/04/04 09:08:30;;;;;;;14.65;9.65;;;;;;;5.41;65.30;98934.84;5089719;28;20044;-59
2022/04/04 09:11:00;;;;;;;15.55;9.80;;;;;;;5.43;64.84;98930.41;5090887;28;20055;-58
2022/04/04 09:13:29;;;;;;;14.70;10.07;;;;;;;5.39;65.56;98906.25;5090849;28;20051;-59
2022/04/04 09:16:02;;;;;;;14.65;9.55;;;;;;;5.40;66.71;98904.47;5090725;28;20503;-59
2022/04/04 09:18:40;;;;;;;17.23;9.88;;;;;;;5.40;68.39;98894.03;5091035;28;20456;-61
2022/04/04 09:21:28;;;;;;;17.27;12.23;;;;;;;5.38;67.23;98895.88;5089386;28;20051;-59
2022/04/04 09:23:58;;;;;;;16.02;10.63;;;;;;;5.37;67.21;98878.50;5090195;28;20044;-60
2022/04/04 09:26:39;;;;;;;15.23;10.02;;;;;;;5.41;67.94;98890.47;5090604;28;20051;-59
2022/04/04 09:29:17;;;;;;;18.10;9.80;;;;;;;5.44;66.64;98874.69;5089449;28;20052;-59
2022/04/04 09:32:22;;;;;;;15.27;9.73;;;;;;;5.43;68.99;98870.38;5090702;28;20075;-60
2022/04/04 09:34:52;;;;;;;13.57;9.90;;;;;;;5.49;67.46;98857.00;5090745;28;20048;-60
2022/04/04 09:37:24;;;;;;;14.40;9.73;;;;;;;5.52;67.00;98854.25;5090497;28;20040;-59
2022/04/04 09:40:00;;;;;;;15.50;10.02;;;;;;;5.56;66.61;98847.09;5090205;28;20070;-61
2022/04/04 09:42:41;;;;;;;13.52;9.18;;;;;;;5.57;66.56;98848.81;5090564;28;20048;-59
2022/04/04 09:45:11;;;;;;;16.45;10.40;;;;;;;5.58;66.82;98856.53;5090336;28;20047;-60
2022/04/04 09:47:57;;;;;;;13.02;9.57;;;;;;;5.61;67.60;98866.00;5088961;28;20599;-60
2022/04/04 09:50:30;;;;;;;12.85;9.73;;;;;;;5.65;67.96;98851.03;5090502;28;20144;-60
2022/04/04 09:52:59;;;;;;;16.70;10.13;;;;;;;5.69;66.45;98832.50;5090356;28;20040;-59
2022/04/04 09:55:37;;;;;;;13.65;9.90;;;;;;;5.70;67.41;98828.13;5090351;28;20147;-59
2022/04/04 09:58:06;;;;;;;12.50;8.88;;;;;;;5.76;66.36;98822.59;5089089;28;20421;-60
2022/04/04 10:00:36;;;;;;;11.63;8.85;;;;;;;5.80;66.27;98812.84;5090216;28;20097;-61
2022/04/04 10:03:04;;;;;;;10.60;8.85;;;;;;;5.81;66.46;98828.44;5090290;28;20152;-62
2022/04/04 10:05:31;;;;;;;14.32;9.82;;;;;;;5.82;66.39;98824.03;5088988;28;20048;-60
2022/04/04 10:07:58;;;;;;;14.88;10.07;;;;;;;5.81;67.18;98828.44;5090237;28;20044;-59
2022/04/04 10:10:26;;;;;;;13.95;9.65;;;;;;;5.88;66.09;98808.06;5090242;28;20117;-61
2022/04/04 10:12:54;;;;;;;17.90;10.90;;;;;;;5.89;66.36;98804.50;5088917;28;20063;-59
2022/04/04 10:15:22;;;;;;;15.07;10.00;;;;;;;5.89;66.44;98811.47;5089063;28;20048;-59
2022/04/04 10:17:50;;;;;;;20.90;10.98;;;;;;;5.89;66.46;98804.50;5088807;28;20052;-58
2022/04/04 10:20:17;;;;;;;15.07;10.15;;;;;;;5.91;66.47;98794.81;5089493;28;20052;-60
2022/04/04 10:22:50;;;;;;;12.88;10.15;;;;;;;5.91;67.22;98793.97;5089723;28;20412;-59
2022/04/04 10:25:20;;;;;;;13.88;10.63;;;;;;;5.93;66.72;98781.66;5089915;28;20060;-62
2022/04/04 10:27:48;;;;;;;16.42;10.63;;;;;;;5.94;66.75;98778.16;5088633;28;20537;-61
2022/04/04 10:30:18;;;;;;;16.27;10.63;;;;;;;5.94;66.91;98778.97;5089884;28;20075;-59
2022/04/04 10:32:53;;;;;;;16.38;10.52;;;;;;;5.95;68.12;98777.22;5089888;28;20048;-59
2022/04/04 10:35:31;;;;;;;16.08;10.52;;;;;;;5.96;67.71;98760.63;5090287;28;20043;-60
2022/04/04 10:38:03;;;;;;;13.68;10.93;;;;;;;5.99;66.84;98786.59;5092785;28;20040;-61
2022/04/04 10:40:32;;;;;;;13.80;10.95;;;;;;;5.99;67.02;98770.91;5093636;28;20051;-60
2022/04/04 10:43:09;;;;;;;16.95;11.45;;;;;;;5.98;67.92;98774.44;5093989;28;20059;-60
2022/04/04 10:45:56;;;;;;;15.50;10.85;;;;;;;5.93;69.08;98789.50;5092668;28;20052;-59
2022/04/04 10:48:28;;;;;;;13.20;9.95;;;;;;;5.98;67.96;98779.69;5092634;28;20048;-60
2022/04/04 10:51:10;;;;;;;14.73;11.07;;;;;;;5.94;67.99;98770.31;5092478;28;20056;-59
2022/04/04 10:53:44;;;;;;;16.05;10.68;;;;;;;5.92;67.76;98759.94;5093783;28;20048;-60
2022/04/04 10:56:17;;;;;;;14.98;11.82;;;;;;;5.92;68.03;98748.66;5092814;28;20044;-59
2022/04/04 10:58:43;;;;;;;14.20;10.82;;;;;;;5.95;67.89;98761.53;5092843;28;20059;-59
2022/04/04 11:01:17;;;;;;;13.00;10.38;;;;;;;5.90;68.24;98756.56;5093605;28;20059;-60
2022/04/04 11:03:52;;;;;;;13.73;10.73;;;;;;;5.91;68.30;98767.88;5093644;28;20446;-59
2022/04/04 11:09:32;;;;;;;18.23;11.00;;;;;;;5.93;68.19;98743.34;5093324;28;20059;-59
2022/04/04 11:11:59;;;;;;;14.77;11.07;;;;;;;5.93;68.57;98743.34;5092116;28;20055;-60
2022/04/04 11:14:28;;;;;;;18.20;12.25;;;;;;;5.89;69.15;98723.53;5093610;28;20055;-59
2022/04/04 11:17:07;;;;;;;15.95;11.27;;;;;;;5.86;70.04;98739.38;5093346;28;20086;-60
2022/04/04 11:19:54;;;;;;;14.07;11.10;;;;;;;5.87;70.51;98735.84;5093297;28;20135;-59
2022/04/04 11:22:22;;;;;;;19.83;12.07;;;;;;;5.89;69.63;98744.44;5092173;28;20052;-60
2022/04/04 11:24:51;;;;;;;14.27;10.88;;;;;;;5.91;69.33;98723.47;5091907;28;20051;-60
2022/04/04 11:27:21;;;;;;;13.90;10.30;;;;;;;5.94;69.57;98713.66;5091950;28;20105;-59
2022/04/04 11:29:48;;;;;;;21.13;12.05;;;;;;;5.95;69.87;98722.38;5093159;28;20048;-59
2022/04/04 11:32:22;;;;;;;20.20;12.18;;;;;;;5.98;69.87;98722.22;5091858;28;20138;-58
2022/04/04 11:34:50;;;;;;;15.52;11.27;;;;;;;6.00;69.76;98730.78;5093327;28;20048;-60
2022/04/04 11:37:19;;;;;;;13.95;11.05;;;;;;;5.99;70.53;98693.38;5093060;28;20063;-60
2022/04/04 11:39:47;;;;;;;12.85;10.85;;;;;;;6.03;70.11;98729.78;5092696;28;20048;-60
2022/04/04 11:42:14;;;;;;;16.00;11.13;;;;;;;6.03;70.20;98720.22;5091756;28;20048;-59
2022/04/04 11:44:48;;;;;;;14.18;10.38;;;;;;;6.03;70.44;98693.19;5092931;28;20048;-59
2022/04/04 11:47:17;;;;;;;12.30;10.18;;;;;;;6.05;70.39;98689.59;5092837;28;20052;-60